createdAt,value
2019-02-10T00:00:38.884Z,7.32
2019-02-10T00:03:07.114Z,7.32
2019-02-10T00:05:35.360Z,7.18
2019-02-10T00:08:03.585Z,7.19
2019-02-10T00:10:31.819Z,7.16
2019-02-10T00:13:22.310Z,7.21
2019-02-10T00:15:50.793Z,7.20
2019-02-10T00:18:19.329Z,7.20
2019-02-10T00:20:47.798Z,7.17
2019-02-10T00:23:16.257Z,7.13
2019-02-10T00:25:44.504Z,7.04
2019-02-10T00:28:12.963Z,6.96
2019-02-10T00:30:41.206Z,6.99
2019-02-10T00:33:09.676Z,6.96
2019-02-10T00:35:37.901Z,6.84
2019-02-10T00:38:06.143Z,6.69
2019-02-10T00:40:34.373Z,6.66
2019-02-10T00:43:02.850Z,6.68
2019-02-10T00:45:31.087Z,6.65
2019-02-10T00:47:59.568Z,6.56
2019-02-10T00:50:27.803Z,6.50
2019-02-10T00:52:56.050Z,6.45
2019-02-10T00:55:24.518Z,6.42
2019-02-10T00:57:52.763Z,6.31
2019-02-10T01:00:20.989Z,6.34
2019-02-10T01:02:49.231Z,6.33
2019-02-10T01:05:17.466Z,6.33
2019-02-10T01:07:45.708Z,6.32
2019-02-10T01:10:14.439Z,6.32
2019-02-10T01:12:42.678Z,6.34
2019-02-10T01:15:10.911Z,6.38
2019-02-10T01:17:39.146Z,6.43
2019-02-10T01:20:09.206Z,6.47
2019-02-10T01:22:37.398Z,6.51
2019-02-10T01:25:07.366Z,6.52
2019-02-10T01:27:35.606Z,6.59
2019-02-10T01:30:05.749Z,6.64
2019-02-10T01:32:34.222Z,6.61
2019-02-10T01:35:02.451Z,6.64
2019-02-10T01:37:30.682Z,6.55
2019-02-10T01:39:58.922Z,6.67
2019-02-10T01:42:27.150Z,6.68
2019-02-10T01:44:55.389Z,6.69
2019-02-10T01:47:23.617Z,6.69
2019-02-10T01:49:52.091Z,6.69
2019-02-10T01:52:20.548Z,6.69
2019-02-10T01:54:49.057Z,6.69
2019-02-10T01:57:17.311Z,6.68
2019-02-10T01:59:45.761Z,6.71
2019-02-10T02:02:14.000Z,6.70
2019-02-10T02:04:42.244Z,6.73
2019-02-10T02:07:10.476Z,6.71
2019-02-10T02:09:38.941Z,6.72
2019-02-10T02:12:07.183Z,6.70
2019-02-10T02:14:35.419Z,6.67
2019-02-10T02:17:03.649Z,6.65
2019-02-10T02:19:31.883Z,6.64
2019-02-10T02:22:00.114Z,6.62
2019-02-10T02:24:28.351Z,6.62
2019-02-10T02:26:56.588Z,6.60
2019-02-10T02:29:24.827Z,6.58
2019-02-10T02:31:53.076Z,6.57
2019-02-10T02:34:21.303Z,6.56
2019-02-10T02:36:49.536Z,6.54
2019-02-10T02:39:18.007Z,6.54
2019-02-10T02:41:46.234Z,6.54
2019-02-10T02:44:14.474Z,6.58
2019-02-10T02:46:42.707Z,6.58
2019-02-10T02:49:10.943Z,6.58
2019-02-10T02:51:39.179Z,6.58
2019-02-10T02:54:07.413Z,6.53
2019-02-10T02:56:35.647Z,6.53
2019-02-10T02:59:03.879Z,6.53
2019-02-10T03:01:32.123Z,6.51
2019-02-10T03:04:00.355Z,6.50
2019-02-10T03:06:30.227Z,6.50
2019-02-10T03:08:58.464Z,6.51
2019-02-10T03:11:26.728Z,6.54
2019-02-10T03:13:54.934Z,6.58
2019-02-10T03:16:23.179Z,6.62
2019-02-10T03:18:53.194Z,6.66
2019-02-10T03:21:21.378Z,6.59
2019-02-10T03:23:49.613Z,6.66
2019-02-10T03:26:17.853Z,6.69
2019-02-10T03:28:46.091Z,6.70
2019-02-10T03:31:14.336Z,6.73
2019-02-10T03:33:42.566Z,6.74
2019-02-10T03:36:10.809Z,6.74
2019-02-10T03:38:39.049Z,6.76
2019-02-10T03:41:07.279Z,6.77
2019-02-10T03:43:35.518Z,6.77
2019-02-10T03:46:03.757Z,6.76
2019-02-10T03:48:31.982Z,6.76
2019-02-10T03:51:00.230Z,6.76
2019-02-10T03:53:28.720Z,6.75
2019-02-10T03:55:56.966Z,6.75
2019-02-10T03:58:25.203Z,6.77
2019-02-10T04:00:53.467Z,6.75
2019-02-10T04:03:21.681Z,6.77
2019-02-10T04:05:49.923Z,6.78
2019-02-10T04:08:18.156Z,6.74
2019-02-10T04:10:46.398Z,6.73
2019-02-10T04:13:14.635Z,6.70
2019-02-10T04:15:42.938Z,6.85
2019-02-10T04:18:11.179Z,6.82
2019-02-10T04:20:39.408Z,6.81
2019-02-10T04:23:09.326Z,6.79
2019-02-10T04:25:37.548Z,6.77
2019-02-10T04:28:05.787Z,6.78
2019-02-10T04:30:34.028Z,6.79
2019-02-10T04:33:02.267Z,6.74
2019-02-10T04:35:30.493Z,6.74
2019-02-10T04:37:58.729Z,6.75
2019-02-10T04:40:27.219Z,6.78
2019-02-10T04:42:55.525Z,6.75
2019-02-10T04:45:23.695Z,6.63
2019-02-10T04:47:51.933Z,6.76
2019-02-10T04:50:20.171Z,6.77
2019-02-10T04:52:48.406Z,6.80
2019-02-10T04:55:16.634Z,6.76
2019-02-10T04:57:44.889Z,6.77
2019-02-10T05:00:13.110Z,6.76
2019-02-10T05:02:41.365Z,6.73
2019-02-10T05:05:09.656Z,6.72
2019-02-10T05:07:38.172Z,6.78
2019-02-10T05:10:07.055Z,6.77
2019-02-10T05:12:35.299Z,6.77
2019-02-10T05:15:03.892Z,6.73
2019-02-10T05:17:32.138Z,6.73
2019-02-10T05:20:00.365Z,6.75
2019-02-10T05:22:28.831Z,6.78
2019-02-10T05:24:57.068Z,6.76
2019-02-10T05:27:25.305Z,6.75
2019-02-10T05:29:53.536Z,6.78
2019-02-10T05:32:21.773Z,6.81
2019-02-10T05:34:50.003Z,6.78
2019-02-10T05:37:18.289Z,6.80
2019-02-10T05:39:46.755Z,6.77
2019-02-10T05:42:14.983Z,6.77
2019-02-10T05:44:43.452Z,6.78
2019-02-10T05:47:11.681Z,6.77
2019-02-10T05:49:39.922Z,6.75
2019-02-10T05:52:08.150Z,6.77
2019-02-10T05:54:36.388Z,6.76
2019-02-10T05:57:04.618Z,6.67
2019-02-10T05:59:32.858Z,6.72
2019-02-10T06:02:03.959Z,6.71
2019-02-10T06:04:35.103Z,6.66
2019-02-10T06:07:06.508Z,6.65
2019-02-10T06:09:34.748Z,6.66
2019-02-10T06:12:02.980Z,6.67
2019-02-10T06:14:31.217Z,6.65
2019-02-10T06:16:59.457Z,6.69
2019-02-10T06:19:27.923Z,6.69
2019-02-10T06:21:56.152Z,6.72
2019-02-10T06:24:24.395Z,6.72
2019-02-10T06:26:52.618Z,6.70
2019-02-10T06:29:20.864Z,6.70
2019-02-10T06:31:49.084Z,6.73
2019-02-10T06:34:17.330Z,6.71
2019-02-10T06:36:45.803Z,6.65
2019-02-10T06:39:14.047Z,6.72
2019-02-10T06:41:42.501Z,6.75
2019-02-10T06:44:10.973Z,6.76
2019-02-10T06:46:39.208Z,6.73
2019-02-10T06:49:07.678Z,6.75
2019-02-10T06:51:36.725Z,6.75
2019-02-10T06:54:04.954Z,6.77
2019-02-10T06:56:33.189Z,6.79
2019-02-10T06:59:01.651Z,6.80
2019-02-10T07:01:37.552Z,6.79
2019-02-10T07:04:09.408Z,6.80
2019-02-10T07:06:37.650Z,6.78
2019-02-10T07:09:06.623Z,6.78
2019-02-10T07:11:34.867Z,6.79
2019-02-10T07:14:03.102Z,6.80
2019-02-10T07:16:46.939Z,6.77
2019-02-10T07:19:51.827Z,6.82
2019-02-10T07:22:43.235Z,6.79
2019-02-10T07:25:17.604Z,6.82
2019-02-10T07:27:51.167Z,6.85
2019-02-10T07:30:37.323Z,6.83
2019-02-10T07:33:08.103Z,6.85
2019-02-10T07:36:00.937Z,6.89
2019-02-10T07:38:47.432Z,6.89
2019-02-10T07:41:18.841Z,6.92
2019-02-10T07:43:59.115Z,6.95
2019-02-10T07:46:47.144Z,6.94
2019-02-10T07:49:34.800Z,6.94
2019-02-10T07:52:12.107Z,6.97
2019-02-10T07:54:55.329Z,7.01
2019-02-10T07:57:45.807Z,7.02
2019-02-10T08:00:17.223Z,7.04
2019-02-10T08:02:48.625Z,7.05
2019-02-10T08:05:37.895Z,7.08
2019-02-10T08:08:46.596Z,7.12
2019-02-10T08:11:27.207Z,7.17
2019-02-10T08:14:13.573Z,7.20
2019-02-10T08:16:48.070Z,7.22
2019-02-10T08:19:52.298Z,7.24
2019-02-10T08:22:47.702Z,7.23
2019-02-10T08:25:34.113Z,7.31
2019-02-10T08:28:17.185Z,7.33
2019-02-10T08:30:51.748Z,7.38
2019-02-10T08:33:23.171Z,7.39
2019-02-10T08:36:18.517Z,7.46
2019-02-10T08:38:54.560Z,7.46
2019-02-10T08:41:28.890Z,7.49
2019-02-10T08:44:12.451Z,7.56
2019-02-10T08:46:49.550Z,7.59
2019-02-10T08:49:23.659Z,7.63
2019-02-10T08:51:57.763Z,7.65
2019-02-10T08:54:26.077Z,7.65
2019-02-10T08:56:54.305Z,7.68
2019-02-10T08:59:22.539Z,7.69
2019-02-10T09:01:51.061Z,7.69
2019-02-10T09:04:19.527Z,7.70
2019-02-10T09:06:47.760Z,7.72
2019-02-10T09:09:16.006Z,7.74
2019-02-10T09:11:44.235Z,7.76
2019-02-10T09:14:12.703Z,7.77
2019-02-10T09:16:41.160Z,7.78
2019-02-10T09:19:09.634Z,7.78
2019-02-10T09:21:37.872Z,7.78
2019-02-10T09:24:06.114Z,7.78
2019-02-10T09:26:34.581Z,7.82
2019-02-10T09:29:02.821Z,7.84
2019-02-10T09:31:33.099Z,7.86
2019-02-10T09:34:01.408Z,7.87
2019-02-10T09:36:29.648Z,7.89
2019-02-10T09:38:58.127Z,7.91
2019-02-10T09:41:26.358Z,7.90
2019-02-10T09:43:54.592Z,7.94
2019-02-10T09:46:23.059Z,7.94
2019-02-10T09:48:51.300Z,7.95
2019-02-10T09:51:19.535Z,7.96
2019-02-10T09:53:47.762Z,7.98
2019-02-10T09:56:16.247Z,7.98
2019-02-10T09:58:47.261Z,8.05
2019-02-10T10:01:15.489Z,8.05
2019-02-10T10:03:43.731Z,8.07
2019-02-10T10:06:11.966Z,8.08
2019-02-10T10:08:40.442Z,8.08
2019-02-10T10:11:08.684Z,8.09
2019-02-10T10:13:36.924Z,8.13
2019-02-10T10:16:05.151Z,8.14
2019-02-10T10:18:33.390Z,8.13
2019-02-10T10:21:01.632Z,8.15
2019-02-10T10:23:29.906Z,8.14
2019-02-10T10:25:58.140Z,8.16
2019-02-10T10:28:26.377Z,8.16
2019-02-10T10:30:54.619Z,8.19
2019-02-10T10:33:22.851Z,8.22
2019-02-10T10:35:51.100Z,8.25
2019-02-10T10:38:19.565Z,8.27
2019-02-10T10:40:48.036Z,8.28
2019-02-10T10:43:16.265Z,8.29
2019-02-10T10:45:44.762Z,8.32
2019-02-10T10:48:12.995Z,8.31
2019-02-10T10:50:41.469Z,8.31
2019-02-10T10:53:09.938Z,8.33
2019-02-10T10:55:38.176Z,8.30
2019-02-10T10:58:06.633Z,8.34
2019-02-10T11:00:35.107Z,8.32
2019-02-10T11:03:03.345Z,8.33
2019-02-10T11:05:31.813Z,8.34
2019-02-10T11:08:00.046Z,8.33
2019-02-10T11:10:28.291Z,8.37
2019-02-10T11:12:56.523Z,8.40
2019-02-10T11:15:24.761Z,8.43
2019-02-10T11:17:52.990Z,8.43
2019-02-10T11:20:21.458Z,8.42
2019-02-10T11:22:49.690Z,8.45
2019-02-10T11:25:17.931Z,8.49
2019-02-10T11:27:46.390Z,8.52
2019-02-10T11:30:17.567Z,8.52
2019-02-10T11:32:46.028Z,8.54
2019-02-10T11:35:14.275Z,8.51
2019-02-10T11:37:42.507Z,8.56
2019-02-10T11:40:11.918Z,8.59
2019-02-10T11:42:40.148Z,8.59
2019-02-10T11:45:10.920Z,8.59
2019-02-10T11:47:39.234Z,8.63
2019-02-10T11:50:14.082Z,8.65
2019-02-10T11:52:42.320Z,8.64
2019-02-10T11:55:11.216Z,8.64
2019-02-10T11:57:39.684Z,8.65
2019-02-10T12:00:11.092Z,8.64
2019-02-10T12:02:39.332Z,8.65
2019-02-10T12:05:09.698Z,8.70
2019-02-10T12:07:37.933Z,8.72
2019-02-10T12:10:11.795Z,8.73
2019-02-10T12:12:40.262Z,8.72
2019-02-10T12:15:11.965Z,8.78
2019-02-10T12:17:40.204Z,8.79
2019-02-10T12:20:13.375Z,8.78
2019-02-10T12:22:49.663Z,8.83
2019-02-10T12:25:11.638Z,8.86
2019-02-10T12:27:39.877Z,8.90
2019-02-10T12:30:15.781Z,8.95
2019-02-10T12:32:44.021Z,9.00
2019-02-10T12:35:12.524Z,9.06
2019-02-10T12:37:40.769Z,9.14
2019-02-10T12:40:10.470Z,9.18
2019-02-10T12:42:38.939Z,9.24
2019-02-10T12:45:12.089Z,9.27
2019-02-10T12:47:40.568Z,9.26
2019-02-10T12:50:13.365Z,9.30
2019-02-10T12:52:41.601Z,9.30
2019-02-10T12:55:11.229Z,9.31
2019-02-10T12:57:39.572Z,9.32
2019-02-10T13:00:13.418Z,9.33
2019-02-10T13:02:41.654Z,9.31
2019-02-10T13:05:09.949Z,9.33
2019-02-10T13:07:38.188Z,9.31
2019-02-10T13:10:11.792Z,9.34
2019-02-10T13:12:40.270Z,9.33
2019-02-10T13:15:09.939Z,9.36
2019-02-10T13:17:38.184Z,9.36
2019-02-10T13:20:13.929Z,9.34
2019-02-10T13:22:42.144Z,9.33
2019-02-10T13:25:11.518Z,9.33
2019-02-10T13:27:39.817Z,9.31
2019-02-10T13:30:11.304Z,9.36
2019-02-10T13:32:39.528Z,9.39
2019-02-10T13:35:07.763Z,9.39
2019-02-10T13:37:35.989Z,9.39
2019-02-10T13:40:07.678Z,9.42
2019-02-10T13:42:36.135Z,9.38
2019-02-10T13:45:06.736Z,9.42
2019-02-10T13:47:34.965Z,9.42
2019-02-10T13:50:03.607Z,9.41
2019-02-10T13:52:31.838Z,9.40
2019-02-10T13:55:00.248Z,9.30
2019-02-10T13:57:28.502Z,9.35
2019-02-10T13:59:57.041Z,9.34
2019-02-10T14:02:25.270Z,9.32
2019-02-10T14:04:53.781Z,9.30
2019-02-10T14:07:22.239Z,9.28
2019-02-10T14:09:50.479Z,9.27
2019-02-10T14:12:18.723Z,9.21
2019-02-10T14:14:46.979Z,9.16
2019-02-10T14:17:15.471Z,9.13
2019-02-10T14:19:43.712Z,9.10
2019-02-10T14:22:12.180Z,9.09
2019-02-10T14:26:55.051Z,9.05
2019-02-10T14:29:23.549Z,9.03
2019-02-10T14:31:52.009Z,9.01
2019-02-10T14:34:20.247Z,8.98
2019-02-10T14:36:48.726Z,8.97
2019-02-10T14:39:16.932Z,8.93
2019-02-10T14:41:45.200Z,8.90
2019-02-10T14:44:13.438Z,8.94
2019-02-10T14:46:41.899Z,8.92
2019-02-10T14:49:10.377Z,8.91
2019-02-10T14:51:38.605Z,8.89
2019-02-10T14:54:07.069Z,8.85
2019-02-10T14:56:35.303Z,8.85
2019-02-10T14:59:03.544Z,8.85
2019-02-10T15:01:32.019Z,8.84
2019-02-10T15:04:00.485Z,8.81
2019-02-10T15:06:28.944Z,8.77
2019-02-10T15:08:57.188Z,8.78
2019-02-10T15:11:25.415Z,8.78
2019-02-10T15:13:53.642Z,8.78
2019-02-10T15:16:21.879Z,8.78
2019-02-10T15:18:50.108Z,8.76
2019-02-10T15:21:18.348Z,8.75
2019-02-10T15:23:46.582Z,8.76
2019-02-10T15:26:15.050Z,8.79
2019-02-10T15:28:43.275Z,8.83
2019-02-10T15:31:11.755Z,8.85
2019-02-10T15:33:39.984Z,8.88
2019-02-10T15:36:08.444Z,8.88
2019-02-10T15:38:36.723Z,8.86
2019-02-10T15:41:04.914Z,8.83
2019-02-10T15:43:33.143Z,8.76
2019-02-10T15:46:01.608Z,8.70
2019-02-10T15:48:29.840Z,8.68
2019-02-10T15:50:58.336Z,8.68
2019-02-10T15:53:26.584Z,8.70
2019-02-10T15:55:55.030Z,8.67
2019-02-10T15:58:23.490Z,8.67
2019-02-10T16:00:51.965Z,8.70
2019-02-10T16:03:20.191Z,8.66
2019-02-10T16:05:48.661Z,8.66
2019-02-10T16:08:17.115Z,8.62
2019-02-10T16:10:45.366Z,8.59
2019-02-10T16:13:13.590Z,8.57
2019-02-10T16:15:41.833Z,8.56
2019-02-10T16:18:10.294Z,8.49
2019-02-10T16:20:38.524Z,8.43
2019-02-10T16:23:06.752Z,8.35
2019-02-10T16:25:34.988Z,8.33
2019-02-10T16:28:03.279Z,8.34
2019-02-10T16:30:31.511Z,8.29
2019-02-10T16:32:59.734Z,8.29
2019-02-10T16:35:27.971Z,8.28
2019-02-10T16:37:56.199Z,8.24
2019-02-10T16:40:24.440Z,8.22
2019-02-10T16:42:52.676Z,8.22
2019-02-10T16:45:21.139Z,8.16
2019-02-10T16:47:49.374Z,8.17
2019-02-10T16:50:17.977Z,8.13
2019-02-10T16:52:46.433Z,8.09
2019-02-10T16:55:19.634Z,8.08
2019-02-10T16:57:47.911Z,8.05
2019-02-10T17:00:16.776Z,8.00
2019-02-10T17:02:45.312Z,8.01
2019-02-10T17:05:13.835Z,7.99
2019-02-10T17:07:42.073Z,7.97
2019-02-10T17:10:12.838Z,7.96
2019-02-10T17:12:41.077Z,7.94
2019-02-10T17:15:11.253Z,7.91
2019-02-10T17:17:39.503Z,7.86
2019-02-10T17:20:10.070Z,7.82
2019-02-10T17:22:38.295Z,7.79
2019-02-10T17:25:15.312Z,7.69
2019-02-10T17:27:43.572Z,7.65
2019-02-10T17:30:13.941Z,7.57
2019-02-10T17:32:42.174Z,7.54
2019-02-10T17:35:12.262Z,7.51
2019-02-10T17:37:40.546Z,7.50
2019-02-10T17:40:17.634Z,7.48
2019-02-10T17:42:46.153Z,7.41
2019-02-10T17:45:14.375Z,7.40
2019-02-10T17:47:42.907Z,7.35
2019-02-10T17:50:13.040Z,7.29
2019-02-10T17:52:41.276Z,7.21
2019-02-10T17:55:10.293Z,7.13
2019-02-10T17:57:38.576Z,7.11
2019-02-10T18:00:15.176Z,7.05
2019-02-10T18:02:43.737Z,6.93
2019-02-10T18:05:12.001Z,6.92
2019-02-10T18:07:40.235Z,6.86
2019-02-10T18:10:11.503Z,6.87
2019-02-10T18:12:39.745Z,6.81
2019-02-10T18:15:12.669Z,6.83
2019-02-10T18:17:57.877Z,6.82
2019-02-10T18:20:34.003Z,6.78
2019-02-10T18:23:12.296Z,6.80
2019-02-10T18:25:47.858Z,6.77
2019-02-10T18:28:20.381Z,6.77
2019-02-10T18:31:02.192Z,6.74
2019-02-10T18:33:37.941Z,6.76
2019-02-10T18:36:25.744Z,6.74
2019-02-10T18:38:58.542Z,6.74
2019-02-10T18:41:28.442Z,6.78
2019-02-10T18:44:16.175Z,6.81
2019-02-10T18:46:49.213Z,6.82
2019-02-10T18:49:28.083Z,6.83
2019-02-10T18:51:57.948Z,6.76
2019-02-10T18:54:43.740Z,6.78
2019-02-10T18:57:13.594Z,6.74
2019-02-10T18:59:46.475Z,6.77
2019-02-10T19:02:32.578Z,6.78
2019-02-10T19:05:02.515Z,6.86
2019-02-10T19:07:41.366Z,6.89
2019-02-10T19:10:23.136Z,6.92
2019-02-10T19:13:09.527Z,6.95
2019-02-10T19:15:54.916Z,6.98
2019-02-10T19:18:24.805Z,6.99
2019-02-10T19:21:00.151Z,6.98
2019-02-10T19:23:42.054Z,6.97
2019-02-10T19:26:14.634Z,6.97
2019-02-10T19:28:50.219Z,6.91
2019-02-10T19:31:25.545Z,6.94
2019-02-10T19:33:58.401Z,6.92
2019-02-10T19:36:44.512Z,6.90
2019-02-10T19:39:23.421Z,6.89
2019-02-10T19:41:59.495Z,6.83
2019-02-10T19:44:29.613Z,6.79
2019-02-10T19:46:59.491Z,6.77
2019-02-10T19:49:45.647Z,6.73
2019-02-10T19:52:27.803Z,6.72
2019-02-10T19:55:00.201Z,6.70
2019-02-10T19:57:36.203Z,6.63
2019-02-10T20:00:12.246Z,6.62
2019-02-10T20:02:48.151Z,6.56
2019-02-10T20:05:24.239Z,6.54
2019-02-10T20:08:00.314Z,6.45
2019-02-10T20:10:33.094Z,6.33
2019-02-10T20:13:08.631Z,6.41
2019-02-10T20:15:38.506Z,6.35
2019-02-10T20:18:11.124Z,6.31
2019-02-10T20:20:49.940Z,6.32
2019-02-10T20:23:19.795Z,6.34
2019-02-10T20:26:06.156Z,6.35
2019-02-10T20:28:44.731Z,6.33
2019-02-10T20:31:26.666Z,6.34
2019-02-10T20:34:05.896Z,6.39
2019-02-10T20:36:42.080Z,6.37
2019-02-10T20:39:15.101Z,6.40
2019-02-10T20:41:45.216Z,6.41
2019-02-10T20:44:31.389Z,6.43
2019-02-10T20:47:19.251Z,6.45
2019-02-10T20:50:05.048Z,6.39
2019-02-10T20:52:37.621Z,6.44
2019-02-10T20:55:15.134Z,6.45
2019-02-10T20:57:45.238Z,6.44
2019-02-10T21:00:24.860Z,6.45
2019-02-10T21:03:13.171Z,6.47
2019-02-10T21:05:51.958Z,6.42
2019-02-10T21:08:40.285Z,6.43
2019-02-10T21:11:26.612Z,6.42
2019-02-10T21:14:02.451Z,6.45
2019-02-10T21:16:44.633Z,6.42
2019-02-10T21:19:14.503Z,6.42
2019-02-10T21:21:47.364Z,6.42
2019-02-10T21:24:33.505Z,6.43
2019-02-10T21:27:19.507Z,6.39
2019-02-10T21:29:49.626Z,6.40
2019-02-10T21:32:31.820Z,6.35
2019-02-10T21:35:01.690Z,6.34
2019-02-10T21:37:31.590Z,6.32
2019-02-10T21:40:04.415Z,6.29
2019-02-10T21:42:50.758Z,6.22
2019-02-10T21:45:20.627Z,6.21
2019-02-10T21:47:50.508Z,6.21
2019-02-10T21:50:18.741Z,6.16
2019-02-10T21:52:46.982Z,6.12
2019-02-10T21:55:16.546Z,6.12
2019-02-10T21:57:45.159Z,6.10
2019-02-10T22:00:14.327Z,6.10
2019-02-10T22:02:42.562Z,6.06
2019-02-10T22:05:10.785Z,6.04
2019-02-10T22:07:39.021Z,6.02
2019-02-10T22:10:12.090Z,5.99
2019-02-10T22:12:40.338Z,5.99
2019-02-10T22:15:10.145Z,5.99
2019-02-10T22:17:38.373Z,5.97
2019-02-10T22:20:11.594Z,5.92
2019-02-10T22:22:39.883Z,5.93
2019-02-10T22:25:12.053Z,5.94
2019-02-10T22:27:40.536Z,5.94
2019-02-10T22:30:14.591Z,5.90
2019-02-10T22:32:42.820Z,5.90
2019-02-10T22:35:11.305Z,5.85
2019-02-10T22:37:39.537Z,5.82
2019-02-10T22:40:10.432Z,5.80
2019-02-10T22:42:45.530Z,5.77
2019-02-10T22:45:11.172Z,5.72
2019-02-10T22:47:39.403Z,5.74
2019-02-10T22:50:10.550Z,5.72
2019-02-10T22:52:38.793Z,5.73
2019-02-10T22:55:07.264Z,5.72
2019-02-10T22:57:35.718Z,5.70
2019-02-10T23:00:14.528Z,5.69
2019-02-10T23:02:42.998Z,5.63
2019-02-10T23:05:11.232Z,5.63
2019-02-10T23:07:39.451Z,5.55
2019-02-10T23:10:07.687Z,5.43
2019-02-10T23:12:35.916Z,5.54
2019-02-10T23:15:05.312Z,5.54
2019-02-10T23:17:33.519Z,5.47
2019-02-10T23:20:02.037Z,5.43
2019-02-10T23:22:30.265Z,5.36
2019-02-10T23:24:58.504Z,5.34
2019-02-10T23:27:26.744Z,5.34
2019-02-10T23:29:54.981Z,5.23
2019-02-10T23:32:23.211Z,5.35
2019-02-10T23:34:51.453Z,5.24
2019-02-10T23:37:19.923Z,5.24
2019-02-10T23:39:48.559Z,5.28
2019-02-10T23:42:17.036Z,5.29
2019-02-10T23:44:45.262Z,5.30
2019-02-10T23:47:13.723Z,5.29
2019-02-10T23:49:41.966Z,5.26
2019-02-10T23:52:10.203Z,5.18
2019-02-10T23:54:38.663Z,5.18
2019-02-10T23:57:07.165Z,5.14
2019-02-10T23:59:35.410Z,5.14
